Terminal Aerodrome Forecast
Issued by NWS Pendleton, OR

Home | Current Version | Previous Version | Text Only | Print | Product List | Glossary On
Versions: 1 2 3 4 5 6 7 8 9 10 11 12 13 14 15 16 17 18 19 20 21 22 23 24 25 26 27
000
FTUS46 KPDT 242014 AAC
TAFPDT
TAF AMD
KPDT 242014Z 2420/2518 31005KT 1 1/2SM BR SCT002 OVC005
      TEMPO 2420/2421 3SM BR OVC007
     FM242100 30005KT 5SM BR OVC009
     FM250400 17004KT 3SM BR SCT003 OVC010
     FM251200 VRB04KT 1SM BR OVC005=

USA.gov is the U.S. government's official web portal to all federal, state and local government web resources and services.